Time;durP1;ratioP1;P1;durP2;ratioP2;P2;SDS_P1;SDS_P2;PMS_P1;PMS_P2;Temp;Humidity;BMP_temperature;BMP_pressure;BME280_temperature;BME280_humidity;BME280_pressure;Samples;Min_cycle;Max_cycle;Signal;HPM_P1;HPM_P2
2022/07/19 00:00:13;;;;;;;7.97;5.88;;;19.40;99.90;;;;;;5118265;27;20123;-79
2022/07/19 00:02:40;;;;;;;12.82;5.82;;;19.30;99.90;;;;;;5118056;27;20090;-81
2022/07/19 00:05:09;;;;;;;9.20;5.38;;;19.40;99.90;;;;;;5135507;27;20103;-82
2022/07/19 00:07:37;;;;;;;10.45;5.82;;;19.30;99.90;;;;;;5138022;27;20047;-81
2022/07/19 00:10:06;;;;;;;10.85;5.78;;;19.30;99.90;;;;;;5112970;28;20052;-81
2022/07/19 00:12:35;;;;;;;7.05;4.65;;;19.20;99.90;;;;;;5106204;28;20052;-81
2022/07/19 00:15:03;;;;;;;7.90;5.35;;;19.20;99.90;;;;;;5119347;28;20052;-81
2022/07/19 00:17:29;;;;;;;8.45;4.63;;;19.20;99.90;;;;;;5106118;28;20054;-82
2022/07/19 00:19:56;;;;;;;7.32;5.30;;;19.20;99.90;;;;;;5122847;28;20048;-83
2022/07/19 00:22:23;;;;;;;7.38;4.32;;;19.20;99.90;;;;;;5096311;28;20051;-81
2022/07/19 00:24:50;;;;;;;7.25;4.85;;;19.30;99.90;;;;;;5128001;28;20506;-80
2022/07/19 00:27:17;;;;;;;9.52;4.32;;;19.20;99.90;;;;;;5134884;28;20047;-80
2022/07/19 00:29:45;;;;;;;7.60;4.85;;;19.20;99.90;;;;;;5116264;28;20095;-80
2022/07/19 00:32:12;;;;;;;7.70;4.82;;;19.30;99.90;;;;;;5135110;28;20043;-79
2022/07/19 00:34:38;;;;;;;12.18;5.05;;;19.30;99.90;;;;;;5116732;28;20059;-79
2022/07/19 00:37:05;;;;;;;8.40;4.90;;;19.30;99.90;;;;;;5134290;28;20047;-81
2022/07/19 00:39:32;;;;;;;10.15;5.28;;;19.30;99.90;;;;;;5135474;28;20487;-80
2022/07/19 00:41:59;;;;;;;9.10;4.80;;;19.30;99.90;;;;;;5116423;28;20510;-79
2022/07/19 00:44:26;;;;;;;8.32;4.82;;;19.20;99.90;;;;;;5135660;28;20055;-80
2022/07/19 00:46:54;;;;;;;7.22;5.15;;;19.30;99.90;;;;;;5116654;28;20065;-79
2022/07/19 00:49:22;;;;;;;10.65;5.50;;;19.30;99.90;;;;;;5115675;28;20057;-79
2022/07/19 00:51:52;;;;;;;7.70;4.88;;;19.30;99.90;;;;;;5134359;28;20055;-80
2022/07/19 00:54:20;;;;;;;6.85;4.60;;;19.20;99.90;;;;;;5134819;28;20047;-80
2022/07/19 00:56:50;;;;;;;10.23;5.57;;;19.20;99.90;;;;;;5117339;27;20046;-80
2022/07/19 00:59:17;;;;;;;10.57;5.20;;;19.20;99.90;;;;;;5120856;27;20115;-80
2022/07/19 01:01:45;;;;;;;6.85;4.40;;;19.10;99.90;;;;;;5122541;27;20062;-80
2022/07/19 01:04:13;;;;;;;9.48;4.78;;;19.20;99.90;;;;;;5137965;27;20043;-80
2022/07/19 01:06:42;;;;;;;9.32;5.07;;;19.20;99.90;;;;;;5121787;27;20048;-81
2022/07/19 01:09:09;;;;;;;8.07;4.75;;;19.20;99.90;;;;;;5119102;27;20043;-81
2022/07/19 01:11:36;;;;;;;8.20;5.13;;;19.10;99.90;;;;;;5119179;27;20456;-81
2022/07/19 01:14:03;;;;;;;8.30;5.22;;;19.10;99.90;;;;;;5119270;27;20112;-82
2022/07/19 01:16:30;;;;;;;7.97;4.95;;;19.10;99.90;;;;;;5120195;27;20053;-82
2022/07/19 01:18:57;;;;;;;8.43;4.72;;;19.10;99.90;;;;;;5119152;27;20083;-81
2022/07/19 01:21:26;;;;;;;7.60;5.00;;;19.00;99.90;;;;;;5137524;27;20103;-81
2022/07/19 01:23:53;;;;;;;9.25;5.68;;;19.00;99.90;;;;;;5098735;28;20096;-82
2022/07/19 01:26:20;;;;;;;7.57;4.30;;;19.00;99.90;;;;;;5098114;28;20101;-81
2022/07/19 01:28:47;;;;;;;6.75;5.00;;;19.00;99.90;;;;;;5116782;28;20055;-81
2022/07/19 01:31:14;;;;;;;9.57;5.35;;;19.00;99.90;;;;;;5115200;28;20048;-82
2022/07/19 01:33:42;;;;;;;11.20;5.40;;;18.90;99.90;;;;;;5098453;28;20051;-82
2022/07/19 01:36:09;;;;;;;9.32;5.05;;;18.90;99.90;;;;;;5129270;27;20510;-82
2022/07/19 01:38:39;;;;;;;7.38;4.68;;;18.80;99.90;;;;;;5118588;27;20100;-80
2022/07/19 01:41:07;;;;;;;9.00;4.85;;;18.80;99.90;;;;;;5118516;27;20053;-81
2022/07/19 01:43:34;;;;;;;7.18;4.50;;;18.80;99.90;;;;;;5118701;27;20047;-80
2022/07/19 01:46:03;;;;;;;7.57;5.25;;;18.80;99.90;;;;;;5118231;27;20047;-80
2022/07/19 01:48:29;;;;;;;7.13;4.70;;;18.70;99.90;;;;;;5137368;27;20107;-82
2022/07/19 01:50:56;;;;;;;12.75;5.50;;;18.70;99.90;;;;;;5137683;27;20103;-80
2022/07/19 01:53:23;;;;;;;8.68;5.80;;;18.60;99.90;;;;;;5136625;27;20050;-81
2022/07/19 01:55:52;;;;;;;11.18;4.80;;;18.60;99.90;;;;;;5137237;27;20047;-81
2022/07/19 01:58:18;;;;;;;7.35;5.05;;;18.50;99.90;;;;;;5119411;27;20043;-81
2022/07/19 02:00:46;;;;;;;6.68;5.10;;;18.50;99.90;;;;;;5118114;27;20107;-79
2022/07/19 02:03:12;;;;;;;9.98;5.07;;;18.50;99.90;;;;;;5119430;27;20448;-78
2022/07/19 02:05:39;;;;;;;9.95;5.53;;;18.50;99.90;;;;;;5128723;27;20563;-79
2022/07/19 02:08:06;;;;;;;8.63;5.07;;;18.50;99.90;;;;;;5115134;28;20047;-79
2022/07/19 02:10:33;;;;;;;8.45;5.22;;;18.40;99.90;;;;;;5116460;28;20051;-78
2022/07/19 02:13:01;;;;;;;6.95;5.47;;;18.40;99.90;;;;;;5116441;28;20055;-79
2022/07/19 02:15:28;;;;;;;12.05;5.80;;;18.40;99.90;;;;;;5116092;28;20051;-78
2022/07/19 02:17:55;;;;;;;7.78;5.72;;;18.50;99.90;;;;;;5116424;28;20047;-79
2022/07/19 02:20:22;;;;;;;7.20;4.95;;;18.50;99.90;;;;;;5123729;27;20066;-78
2022/07/19 02:22:50;;;;;;;9.07;5.32;;;18.50;99.90;;;;;;5136234;27;20051;-79
2022/07/19 02:25:17;;;;;;;15.73;5.45;;;18.50;99.90;;;;;;5136815;27;20518;-79
2022/07/19 02:27:44;;;;;;;9.38;5.38;;;18.50;99.90;;;;;;5136125;27;20042;-79
2022/07/19 02:30:13;;;;;;;10.55;5.63;;;18.40;99.90;;;;;;5118013;27;20100;-78
2022/07/19 02:32:40;;;;;;;8.05;5.20;;;18.40;99.90;;;;;;5136893;27;20051;-81
2022/07/19 02:35:10;;;;;;;8.98;5.63;;;18.30;99.90;;;;;;5135624;27;20059;-81
2022/07/19 02:37:37;;;;;;;10.85;5.60;;;18.30;99.90;;;;;;5136844;27;20050;-80
2022/07/19 02:40:05;;;;;;;9.02;5.40;;;18.30;99.90;;;;;;5136682;27;20051;-80
2022/07/19 02:42:32;;;;;;;9.48;5.60;;;18.30;99.90;;;;;;5135868;27;20556;-81
2022/07/19 02:44:59;;;;;;;9.93;5.38;;;18.20;99.90;;;;;;5136648;27;20055;-81
2022/07/19 02:47:27;;;;;;;8.93;5.82;;;18.30;99.90;;;;;;5117672;27;20043;-81
2022/07/19 02:49:54;;;;;;;10.48;6.22;;;18.30;99.90;;;;;;5117195;27;20092;-81
2022/07/19 02:52:21;;;;;;;10.05;5.55;;;18.30;99.90;;;;;;5118101;27;20055;-79
2022/07/19 02:54:48;;;;;;;8.38;5.22;;;18.20;99.90;;;;;;5136314;27;20051;-79
2022/07/19 02:57:15;;;;;;;8.32;5.63;;;18.30;99.90;;;;;;5117585;27;20620;-80
2022/07/19 02:59:42;;;;;;;9.52;5.55;;;18.30;99.90;;;;;;5136746;27;20487;-80
2022/07/19 03:02:08;;;;;;;9.30;5.53;;;18.30;99.90;;;;;;5135562;27;20551;-79
2022/07/19 03:04:37;;;;;;;10.00;5.30;;;18.30;99.90;;;;;;5119578;27;20412;-80
2022/07/19 03:07:04;;;;;;;7.72;5.32;;;18.30;99.90;;;;;;5115434;28;20083;-79
2022/07/19 03:09:30;;;;;;;8.68;5.72;;;18.30;99.90;;;;;;5115372;28;20407;-79
2022/07/19 03:11:57;;;;;;;9.27;6.38;;;18.40;99.90;;;;;;5115486;28;20047;-80
2022/07/19 03:14:24;;;;;;;11.68;6.43;;;18.40;99.90;;;;;;5098864;28;20048;-79
2022/07/19 03:16:51;;;;;;;8.68;6.00;;;18.50;99.90;;;;;;5104883;28;20064;-79
2022/07/19 03:19:18;;;;;;;9.57;6.05;;;18.50;99.90;;;;;;5121966;27;20043;-79
2022/07/19 03:21:46;;;;;;;10.15;6.50;;;18.50;99.90;;;;;;5141062;27;20058;-79
2022/07/19 03:24:13;;;;;;;10.35;6.63;;;18.50;99.90;;;;;;5117219;27;20150;-80
2022/07/19 03:26:40;;;;;;;11.70;6.15;;;18.50;99.90;;;;;;5117786;27;20104;-82
2022/07/19 03:29:06;;;;;;;12.75;6.72;;;18.40;99.90;;;;;;5117724;27;20043;-79
2022/07/19 03:31:33;;;;;;;12.40;6.32;;;18.40;99.90;;;;;;5109756;28;20080;-80
2022/07/19 03:34:00;;;;;;;12.18;6.78;;;18.40;99.90;;;;;;5114653;28;20051;-80
2022/07/19 03:36:27;;;;;;;9.27;6.07;;;18.40;99.90;;;;;;5097220;28;20044;-79
2022/07/19 03:38:56;;;;;;;10.07;5.97;;;18.40;99.90;;;;;;5096243;28;20050;-80
2022/07/19 03:41:23;;;;;;;8.18;5.93;;;18.40;99.90;;;;;;5114271;28;20126;-79
2022/07/19 03:43:50;;;;;;;8.27;5.80;;;18.40;99.90;;;;;;5097110;28;20096;-80
2022/07/19 03:46:17;;;;;;;10.82;5.95;;;18.40;99.90;;;;;;5097417;28;20047;-80
2022/07/19 03:48:43;;;;;;;9.60;5.30;;;18.40;99.90;;;;;;5115363;28;20105;-80
2022/07/19 03:51:11;;;;;;;9.38;5.20;;;18.40;99.90;;;;;;5116740;27;20108;-79
2022/07/19 03:53:38;;;;;;;10.45;5.72;;;18.40;99.90;;;;;;5102697;28;20052;-79
2022/07/19 03:56:07;;;;;;;7.93;4.57;;;18.50;99.90;;;;;;5126872;27;20046;-77
2022/07/19 03:58:33;;;;;;;10.50;6.00;;;18.60;99.90;;;;;;5132108;27;20043;-78
2022/07/19 04:01:01;;;;;;;11.38;5.60;;;18.70;99.90;;;;;;5138045;27;20047;-79
2022/07/19 04:03:28;;;;;;;8.18;5.40;;;18.70;99.90;;;;;;5120430;28;20494;-79
2022/07/19 04:05:55;;;;;;;8.85;5.40;;;18.80;99.90;;;;;;5136251;27;20043;-78
2022/07/19 04:08:22;;;;;;;7.95;5.05;;;18.90;99.90;;;;;;5116204;28;20051;-79
2022/07/19 04:10:49;;;;;;;11.18;6.30;;;19.00;99.90;;;;;;5130322;28;20043;-80
2022/07/19 04:13:17;;;;;;;10.52;5.25;;;19.10;99.90;;;;;;5116803;28;20059;-78
2022/07/19 04:15:44;;;;;;;8.90;5.97;;;19.10;99.90;;;;;;5122225;28;20137;-78
2022/07/19 04:18:11;;;;;;;8.90;5.05;;;19.00;99.90;;;;;;5147622;28;20047;-78
2022/07/19 04:20:38;;;;;;;9.77;5.80;;;19.10;99.90;;;;;;5140166;28;20055;-78
2022/07/19 04:23:05;;;;;;;8.57;5.35;;;19.10;99.90;;;;;;5128802;28;20495;-78
2022/07/19 04:25:32;;;;;;;11.20;5.57;;;19.10;99.90;;;;;;5131080;28;20046;-78
2022/07/19 04:27:58;;;;;;;9.35;5.68;;;19.20;99.90;;;;;;5113550;28;20486;-78
2022/07/19 04:30:27;;;;;;;11.32;5.25;;;19.20;99.90;;;;;;5130201;28;20043;-77
2022/07/19 04:32:54;;;;;;;8.02;5.43;;;19.20;99.90;;;;;;5129621;27;20461;-77
2022/07/19 04:35:21;;;;;;;7.60;5.25;;;19.20;99.90;;;;;;5113220;27;20051;-78
2022/07/19 04:37:48;;;;;;;10.00;5.90;;;19.30;99.90;;;;;;5128508;27;20096;-78
2022/07/19 04:40:15;;;;;;;9.25;5.65;;;19.40;99.90;;;;;;5115071;27;20535;-78
2022/07/19 04:42:41;;;;;;;7.57;5.32;;;19.40;99.90;;;;;;5131143;27;20407;-79
2022/07/19 04:45:09;;;;;;;13.13;5.50;;;19.50;99.90;;;;;;5132240;27;20495;-79
2022/07/19 04:47:37;;;;;;;6.95;4.93;;;19.60;99.90;;;;;;5111514;27;20099;-78
2022/07/19 04:50:05;;;;;;;8.50;5.63;;;19.60;99.90;;;;;;5111771;27;20039;-78
2022/07/19 04:52:32;;;;;;;9.73;5.82;;;19.70;99.90;;;;;;5132912;27;20051;-79
2022/07/19 04:54:59;;;;;;;9.45;5.80;;;19.80;99.90;;;;;;5111962;27;20066;-77
2022/07/19 04:57:26;;;;;;;10.43;5.72;;;19.90;99.90;;;;;;5111377;27;20103;-77
2022/07/19 04:59:53;;;;;;;8.52;6.03;;;19.90;99.90;;;;;;5137208;27;20050;-77
2022/07/19 05:02:20;;;;;;;8.90;4.70;;;20.00;99.90;;;;;;5140357;27;20069;-77
2022/07/19 05:04:48;;;;;;;9.05;4.70;;;20.10;99.90;;;;;;5135332;27;20058;-76
2022/07/19 05:07:15;;;;;;;7.55;5.45;;;20.10;99.90;;;;;;5119688;27;20043;-76
2022/07/19 05:09:42;;;;;;;11.13;5.22;;;20.20;99.90;;;;;;5134652;27;20047;-77
2022/07/19 05:12:09;;;;;;;9.07;5.40;;;20.30;99.90;;;;;;5118710;27;20056;-77
2022/07/19 05:14:36;;;;;;;7.25;4.78;;;20.40;99.90;;;;;;5116912;27;20555;-78
2022/07/19 05:17:03;;;;;;;12.13;5.03;;;20.50;99.90;;;;;;5131479;27;20502;-76
2022/07/19 05:19:30;;;;;;;7.82;4.72;;;20.60;99.90;;;;;;5128356;27;20040;-79
2022/07/19 05:21:58;;;;;;;6.00;4.18;;;20.70;99.90;;;;;;5117267;27;20047;-77
2022/07/19 05:24:25;;;;;;;8.70;4.75;;;20.90;99.90;;;;;;5128928;27;20047;-78
2022/07/19 05:26:52;;;;;;;9.00;5.07;;;21.00;99.90;;;;;;5128989;27;20162;-78
2022/07/19 05:29:19;;;;;;;6.82;4.32;;;21.20;99.90;;;;;;5116499;27;20103;-79
2022/07/19 05:31:45;;;;;;;8.50;4.70;;;21.30;99.90;;;;;;5111974;27;20051;-79
2022/07/19 05:34:12;;;;;;;6.93;4.22;;;21.50;99.90;;;;;;5129431;27;20047;-78
2022/07/19 05:36:40;;;;;;;7.70;4.80;;;21.70;99.90;;;;;;5116555;27;20104;-77
2022/07/19 05:39:08;;;;;;;6.47;4.45;;;21.80;99.90;;;;;;5112772;27;20113;-79
2022/07/19 05:41:35;;;;;;;8.43;4.32;;;22.00;99.90;;;;;;5130561;27;20052;-77
2022/07/19 05:44:02;;;;;;;8.00;4.35;;;22.10;99.90;;;;;;5129479;27;20047;-78
2022/07/19 05:46:29;;;;;;;8.25;4.13;;;22.30;99.90;;;;;;5112348;27;20046;-76
2022/07/19 05:48:56;;;;;;;9.20;4.65;;;22.50;99.90;;;;;;5114695;27;20043;-78
2022/07/19 05:51:22;;;;;;;6.25;4.47;;;22.60;99.90;;;;;;5134145;27;20100;-78
2022/07/19 05:53:49;;;;;;;6.30;3.70;;;22.70;99.90;;;;;;5115975;27;20043;-78
2022/07/19 05:56:18;;;;;;;7.32;4.07;;;22.90;99.90;;;;;;5131039;27;20380;-77
2022/07/19 05:58:44;;;;;;;8.85;4.47;;;23.00;99.90;;;;;;5109959;27;20058;-78
2022/07/19 06:01:22;;;;;;;11.10;4.63;;;23.20;99.70;;;;;;5127932;27;20044;-77
2022/07/19 06:03:50;;;;;;;10.05;4.20;;;23.30;99.30;;;;;;5114254;27;20058;-77
2022/07/19 06:06:17;;;;;;;8.18;4.78;;;23.50;98.90;;;;;;5113812;27;20088;-77
2022/07/19 06:08:44;;;;;;;6.60;3.97;;;23.60;98.60;;;;;;5126123;27;20121;-77
2022/07/19 06:11:11;;;;;;;9.77;4.07;;;23.70;98.30;;;;;;5129760;27;20049;-79
2022/07/19 06:13:40;;;;;;;8.07;4.10;;;23.90;97.90;;;;;;5132385;27;20047;-78
2022/07/19 06:16:08;;;;;;;7.20;4.05;;;24.00;97.60;;;;;;5129880;27;20422;-78
2022/07/19 06:18:36;;;;;;;6.72;3.67;;;24.20;97.20;;;;;;5129857;27;20051;-78
2022/07/19 06:21:04;;;;;;;8.57;4.40;;;24.40;96.80;;;;;;5133588;27;20108;-76
2022/07/19 06:23:31;;;;;;;5.10;3.33;;;24.50;96.50;;;;;;5115353;27;20102;-77
2022/07/19 06:25:58;;;;;;;5.50;3.88;;;24.70;96.20;;;;;;5131756;27;20543;-77
2022/07/19 06:28:25;;;;;;;8.52;3.80;;;24.80;96.00;;;;;;5119316;27;20381;-78
2022/07/19 06:30:53;;;;;;;5.22;3.38;;;25.00;95.80;;;;;;5115808;28;20112;-78
2022/07/19 06:33:20;;;;;;;5.97;3.80;;;25.20;95.30;;;;;;5114046;28;20048;-77
2022/07/19 06:35:48;;;;;;;8.45;3.95;;;25.30;95.10;;;;;;5114659;28;20101;-78
2022/07/19 06:38:15;;;;;;;5.80;4.00;;;25.40;94.80;;;;;;5097184;28;20096;-77
2022/07/19 06:40:42;;;;;;;9.50;3.85;;;25.60;94.50;;;;;;5096672;27;20055;-78
2022/07/19 06:43:09;;;;;;;5.57;3.67;;;25.80;94.30;;;;;;5132643;27;20547;-78
2022/07/19 06:45:36;;;;;;;8.63;3.90;;;25.90;93.90;;;;;;5136002;27;20043;-79
2022/07/19 06:48:05;;;;;;;7.88;3.88;;;26.00;93.70;;;;;;5134501;27;20051;-78
2022/07/19 06:50:32;;;;;;;5.45;3.83;;;26.10;93.30;;;;;;5117119;27;20460;-78
2022/07/19 06:52:59;;;;;;;7.57;3.50;;;26.30;93.10;;;;;;5135375;27;20095;-78
2022/07/19 06:55:26;;;;;;;5.97;3.47;;;26.50;92.80;;;;;;5115858;27;20047;-78
2022/07/19 06:57:53;;;;;;;6.53;3.17;;;26.70;92.50;;;;;;5135621;27;20043;-78
2022/07/19 07:00:20;;;;;;;8.73;3.70;;;27.10;92.40;;;;;;5117456;27;20092;-78
2022/07/19 07:02:47;;;;;;;10.20;4.15;;;27.50;92.10;;;;;;5134620;27;20047;-78
2022/07/19 07:05:15;;;;;;;9.98;3.20;;;27.80;91.40;;;;;;5135518;27;20100;-78
2022/07/19 07:07:42;;;;;;;6.20;3.17;;;28.10;90.80;;;;;;5108245;28;20055;-78
2022/07/19 07:10:11;;;;;;;6.57;3.10;;;28.40;90.40;;;;;;5114077;28;20113;-78
2022/07/19 07:12:38;;;;;;;7.13;3.45;;;28.60;89.20;;;;;;5114926;28;20461;-78
2022/07/19 07:15:07;;;;;;;6.50;3.50;;;28.80;88.60;;;;;;5120119;27;20388;-78
2022/07/19 07:17:34;;;;;;;7.80;3.72;;;29.00;87.90;;;;;;5134405;27;20066;-79
2022/07/19 07:20:01;;;;;;;6.88;3.60;;;29.20;87.20;;;;;;5135340;27;20124;-78
2022/07/19 07:22:29;;;;;;;9.60;3.20;;;29.30;86.90;;;;;;5116353;27;20100;-78
2022/07/19 07:24:56;;;;;;;8.43;3.42;;;29.60;86.80;;;;;;5134623;27;20452;-78
2022/07/19 07:27:23;;;;;;;5.25;3.35;;;30.10;86.30;;;;;;5134976;27;20058;-78
2022/07/19 07:29:50;;;;;;;11.93;4.00;;;30.50;85.20;;;;;;5134911;27;20104;-79
2022/07/19 07:32:18;;;;;;;7.93;3.80;;;30.80;84.00;;;;;;5134516;27;20054;-78
2022/07/19 07:34:45;;;;;;;4.97;2.85;;;31.10;82.70;;;;;;5135301;27;20055;-78
2022/07/19 07:37:12;;;;;;;5.78;3.10;;;31.30;81.50;;;;;;5096204;28;20051;-78
2022/07/19 07:39:40;;;;;;;5.95;3.65;;;31.60;80.90;;;;;;5114896;28;20544;-79
2022/07/19 07:42:07;;;;;;;6.82;2.95;;;32.00;80.10;;;;;;5097431;28;20491;-78
2022/07/19 07:44:34;;;;;;;5.47;3.10;;;32.30;79.20;;;;;;5114322;28;20065;-80
2022/07/19 07:47:01;;;;;;;6.65;2.92;;;32.40;78.50;;;;;;5134907;27;20107;-79
2022/07/19 07:49:29;;;;;;;5.85;3.08;;;32.80;77.30;;;;;;5134923;27;20447;-79
2022/07/19 07:51:57;;;;;;;5.87;3.40;;;33.00;76.60;;;;;;5135417;27;20051;-79
2022/07/19 07:54:25;;;;;;;8.55;3.38;;;33.20;75.90;;;;;;5117298;27;20293;-80
2022/07/19 07:56:53;;;;;;;7.85;3.35;;;33.10;74.70;;;;;;5134607;27;20065;-79
2022/07/19 07:59:20;;;;;;;9.55;3.40;;;33.40;74.00;;;;;;5116256;27;20059;-79
2022/07/19 08:01:47;;;;;;;5.55;2.85;;;33.60;73.70;;;;;;5113040;28;20121;-79
2022/07/19 08:04:14;;;;;;;6.65;2.70;;;33.90;73.30;;;;;;5113268;27;20491;-80
2022/07/19 08:06:41;;;;;;;4.82;2.75;;;33.90;72.10;;;;;;5115239;27;20498;-80
2022/07/19 08:09:07;;;;;;;5.90;2.92;;;34.20;71.30;;;;;;5134677;27;20047;-79
2022/07/19 08:11:34;;;;;;;4.70;2.85;;;34.30;70.20;;;;;;5116139;28;20050;-79
2022/07/19 08:14:03;;;;;;;5.97;2.85;;;34.40;69.70;;;;;;5110709;28;20051;-80
2022/07/19 08:16:30;;;;;;;4.20;2.53;;;34.50;69.20;;;;;;5133770;28;20556;-79
2022/07/19 08:18:58;;;;;;;6.13;2.60;;;34.60;69.90;;;;;;5133315;28;20051;-79
2022/07/19 08:21:24;;;;;;;4.80;2.70;;;34.70;68.50;;;;;;5114905;28;20047;-79
2022/07/19 08:23:53;;;;;;;7.38;2.78;;;34.70;68.10;;;;;;5133845;28;20058;-78
2022/07/19 08:26:20;;;;;;;6.03;2.72;;;34.80;67.90;;;;;;5114680;28;20115;-79
2022/07/19 08:28:48;;;;;;;4.03;2.13;;;34.90;67.40;;;;;;5133926;28;20088;-78
2022/07/19 08:31:17;;;;;;;7.55;2.47;;;35.00;67.20;;;;;;5115303;28;20058;-79
2022/07/19 08:33:44;;;;;;;4.47;2.65;;;35.40;67.20;;;;;;5112141;28;20406;-79
2022/07/19 08:36:11;;;;;;;5.50;2.17;;;35.80;66.40;;;;;;5104206;28;20095;-79
2022/07/19 08:38:38;;;;;;;3.85;2.25;;;35.90;65.80;;;;;;5115830;28;20043;-80
2022/07/19 08:41:06;;;;;;;7.18;2.40;;;36.20;66.00;;;;;;5108061;28;20040;-80
2022/07/19 08:43:33;;;;;;;8.55;2.40;;;36.40;64.80;;;;;;5111628;28;20076;-79
2022/07/19 08:46:01;;;;;;;4.45;2.05;;;36.50;64.80;;;;;;5108427;28;20415;-80
2022/07/19 08:48:33;;;;;;;2.97;1.70;;;36.70;64.30;;;;;;5113090;28;20055;-79
2022/07/19 08:51:01;;;;;;;7.78;2.60;;;36.80;62.40;;;;;;5113553;28;20043;-79
2022/07/19 08:53:32;;;;;;;7.23;2.40;;;36.90;63.50;;;;;;5096650;28;20047;-80
2022/07/19 08:55:59;;;;;;;5.53;2.38;;;37.10;63.20;;;;;;5095580;28;20058;-79
2022/07/19 08:58:25;;;;;;;4.70;2.30;;;37.30;63.30;;;;;;5095504;28;20062;-79
2022/07/19 09:00:52;;;;;;;4.53;1.98;;;37.60;63.20;;;;;;5101280;28;20091;-80
2022/07/19 09:03:19;;;;;;;5.32;2.13;;;37.60;62.00;;;;;;5115277;28;20059;-79
2022/07/19 09:05:48;;;;;;;5.05;2.45;;;37.80;61.20;;;;;;5127092;28;20396;-79
2022/07/19 09:08:17;;;;;;;3.17;1.85;;;37.90;60.30;;;;;;5110418;28;20079;-79
2022/07/19 09:11:14;;;;;;;3.40;1.90;;;37.80;60.70;;;;;;5115050;28;20050;-80
2022/07/19 09:13:35;;;;;;;3.22;2.22;;;38.10;60.70;;;;;;5115689;28;20043;-80
2022/07/19 09:16:02;;;;;;;7.00;2.15;;;38.20;60.10;;;;;;5115026;28;20054;-80
2022/07/19 09:18:31;;;;;;;4.38;2.00;;;38.20;59.50;;;;;;5136358;27;20054;-79
2022/07/19 09:21:01;;;;;;;2.90;1.77;;;38.10;58.90;;;;;;5138515;27;20096;-79
2022/07/19 09:23:29;;;;;;;5.07;1.98;;;38.10;58.60;;;;;;5118885;27;20051;-80
2022/07/19 09:25:58;;;;;;;3.33;2.03;;;38.30;58.50;;;;;;5120221;27;20063;-79
2022/07/19 09:28:26;;;;;;;3.47;2.08;;;38.50;58.40;;;;;;5137860;27;20054;-79
2022/07/19 09:30:55;;;;;;;5.55;2.00;;;38.50;58.80;;;;;;5136936;27;20039;-79
2022/07/19 09:33:24;;;;;;;2.80;2.10;;;38.40;58.40;;;;;;5119176;27;20047;-79
2022/07/19 09:35:53;;;;;;;6.60;2.05;;;38.40;57.50;;;;;;5109120;27;20074;-80
2022/07/19 09:38:23;;;;;;;6.32;2.80;;;38.30;58.00;;;;;;5100318;27;20051;-80
2022/07/19 09:40:52;;;;;;;5.10;2.13;;;38.20;57.30;;;;;;5133482;27;20039;-77
2022/07/19 09:43:22;;;;;;;6.25;2.45;;;38.20;56.70;;;;;;5108153;27;20457;-78
2022/07/19 09:45:50;;;;;;;6.75;1.80;;;38.20;56.70;;;;;;5118431;27;20447;-80
2022/07/19 09:48:17;;;;;;;7.37;2.03;;;38.20;55.80;;;;;;5103695;27;20483;-79
2022/07/19 09:50:47;;;;;;;3.65;1.65;;;38.20;55.40;;;;;;5106058;28;20039;-79
2022/07/19 09:53:15;;;;;;;9.40;1.90;;;38.20;54.80;;;;;;5105943;27;20103;-81
2022/07/19 09:55:44;;;;;;;8.63;1.98;;;38.40;55.50;;;;;;5138373;27;20051;-80
2022/07/19 09:58:11;;;;;;;9.05;1.95;;;38.60;55.70;;;;;;5125032;27;20392;-79
2022/07/19 10:00:39;;;;;;;3.75;1.55;;;38.80;55.40;;;;;;5115980;27;20483;-78
2022/07/19 10:03:10;;;;;;;3.30;1.50;;;38.70;54.40;;;;;;5098305;28;20058;-81
2022/07/19 10:05:37;;;;;;;5.70;1.65;;;38.80;53.80;;;;;;5100174;27;20057;-79
2022/07/19 10:08:06;;;;;;;3.20;1.40;;;38.90;53.70;;;;;;5113934;28;20471;-80
2022/07/19 10:10:32;;;;;;;4.93;1.55;;;38.90;53.40;;;;;;5107427;27;20437;-81
2022/07/19 10:13:03;;;;;;;3.08;1.25;;;39.00;53.00;;;;;;5135640;27;20051;-78
2022/07/19 10:15:34;;;;;;;3.60;1.50;;;39.10;53.30;;;;;;5110513;28;20079;-80
2022/07/19 10:18:12;;;;;;;5.28;1.88;;;39.20;52.70;;;;;;5122783;27;20402;-79
2022/07/19 10:20:43;;;;;;;2.63;1.40;;;39.20;52.90;;;;;;5124122;27;20048;-80
2022/07/19 10:23:09;;;;;;;4.05;1.70;;;39.30;53.30;;;;;;5109213;28;20062;-80
2022/07/19 10:25:54;;;;;;;3.92;1.70;;;39.40;53.30;;;;;;5120686;27;20096;-79
2022/07/19 10:28:30;;;;;;;4.03;1.60;;;39.50;52.40;;;;;;5132597;27;20073;-81
2022/07/19 10:30:57;;;;;;;4.43;1.55;;;39.40;52.30;;;;;;5108851;28;20051;-80
2022/07/19 10:33:28;;;;;;;3.75;1.60;;;39.50;52.40;;;;;;5132189;27;20051;-80
2022/07/19 10:35:55;;;;;;;5.10;1.60;;;39.50;51.40;;;;;;5109027;27;20482;-80
2022/07/19 10:38:22;;;;;;;4.80;1.50;;;39.50;51.80;;;;;;5116771;27;20044;-81
2022/07/19 10:40:51;;;;;;;3.88;1.73;;;39.70;52.10;;;;;;5122022;27;20046;-80
2022/07/19 10:43:20;;;;;;;3.10;1.38;;;39.70;51.50;;;;;;5103606;27;20055;-80
2022/07/19 10:46:10;;;;;;;2.45;1.40;;;39.70;50.90;;;;;;5099892;28;20079;-79
2022/07/19 10:48:38;;;;;;;3.00;1.60;;;39.70;50.70;;;;;;5116584;28;20052;-80
2022/07/19 10:51:05;;;;;;;4.20;1.70;;;39.80;51.10;;;;;;5098465;28;20071;-79
2022/07/19 10:54:02;;;;;;;4.68;1.50;;;39.90;51.00;;;;;;5136679;27;20066;-80
2022/07/19 10:56:41;;;;;;;6.68;1.63;;;40.10;51.10;;;;;;5102479;28;20487;-79
2022/07/19 10:59:09;;;;;;;;;;;40.10;50.90;;;;;;5102226;27;20104;-78
2022/07/19 11:01:39;;;;;;;7.53;1.80;;;40.10;50.20;;;;;;5130853;27;19926;-77
2022/07/19 11:04:42;;;;;;;2.70;1.50;;;40.10;50.60;;;;;;5108985;27;20052;-78
2022/07/19 11:07:15;;;;;;;3.35;1.40;;;40.30;49.60;;;;;;5050745;28;20056;-78
2022/07/19 11:09:43;;;;;;;10.80;2.03;;;40.20;49.10;;;;;;5031239;28;20673;-79
2022/07/19 11:12:30;;;;;;;2.45;1.27;;;40.20;49.60;;;;;;5086966;27;20044;-79
2022/07/19 11:14:58;;;;;;;4.93;1.50;;;40.40;49.60;;;;;;5116901;27;20118;-79
2022/07/19 11:17:26;;;;;;;3.33;1.23;;;40.50;49.40;;;;;;5110245;27;20047;-80
2022/07/19 11:20:01;;;;;;;5.43;1.67;;;40.60;48.80;;;;;;5133224;27;20047;-80
2022/07/19 11:22:33;;;;;;;5.47;1.40;;;40.60;48.30;;;;;;5095978;28;20043;-80
2022/07/19 11:25:00;;;;;;;4.47;1.75;;;40.60;48.40;;;;;;5114570;28;20052;-80
2022/07/19 11:27:28;;;;;;;3.75;1.42;;;40.60;48.70;;;;;;5114226;28;20040;-81
2022/07/19 11:29:55;;;;;;;3.63;1.23;;;40.70;49.30;;;;;;5114310;28;20092;-80
2022/07/19 11:32:22;;;;;;;3.83;1.30;;;40.90;48.70;;;;;;5096599;28;20104;-81
2022/07/19 11:34:59;;;;;;;4.68;1.40;;;41.10;48.60;;;;;;5096656;28;20453;-81
2022/07/19 11:37:29;;;;;;;5.00;1.70;;;41.20;48.60;;;;;;5095414;28;20047;-79
2022/07/19 11:39:57;;;;;;;5.20;1.40;;;41.10;48.70;;;;;;5127007;27;20043;-80
2022/07/19 11:42:36;;;;;;;5.47;1.50;;;41.30;48.40;;;;;;5116530;27;20444;-81
2022/07/19 11:45:14;;;;;;;4.38;1.42;;;41.40;48.00;;;;;;5115868;27;20141;-80
2022/07/19 11:47:47;;;;;;;3.63;1.10;;;41.20;48.60;;;;;;5113366;27;20125;-80
2022/07/19 11:50:16;;;;;;;3.85;1.02;;;41.30;47.60;;;;;;5134048;27;20134;-79
2022/07/19 11:52:45;;;;;;;3.03;1.33;;;41.30;47.70;;;;;;5116802;27;20054;-80
2022/07/19 11:55:12;;;;;;;2.15;1.13;;;41.40;47.90;;;;;;5116949;27;20055;-79
2022/07/19 11:57:39;;;;;;;5.53;1.17;;;41.40;47.70;;;;;;5134280;27;20495;-79
2022/07/19 12:00:09;;;;;;;4.95;1.35;;;41.60;47.80;;;;;;5116238;27;20055;-80
2022/07/19 12:03:03;;;;;;;3.33;1.20;;;41.40;47.30;;;;;;5106680;28;20051;-80
2022/07/19 12:05:33;;;;;;;5.03;1.98;;;41.50;47.40;;;;;;5113876;28;20081;-80
2022/07/19 12:08:02;;;;;;;3.47;1.00;;;41.50;46.90;;;;;;5096481;28;20508;-81
2022/07/19 12:10:36;;;;;;;3.78;1.10;;;41.70;47.40;;;;;;5114366;28;20097;-81
2022/07/19 12:13:05;;;;;;;3.55;1.10;;;41.90;46.70;;;;;;5113252;28;20539;-80
2022/07/19 12:15:47;;;;;;;4.63;1.10;;;41.90;46.50;;;;;;5100883;28;20571;-80
2022/07/19 12:18:16;;;;;;;4.10;1.08;;;42.00;46.20;;;;;;5135127;28;20079;-81
2022/07/19 12:20:45;;;;;;;3.13;1.17;;;42.00;46.30;;;;;;5133187;28;20499;-80
2022/07/19 12:23:12;;;;;;;;;;;41.90;46.40;;;;;;5134907;28;20126;-80
2022/07/19 12:25:39;;;;;;;2.78;1.10;;;41.90;45.90;;;;;;5115737;28;19968;-82
2022/07/19 12:28:06;;;;;;;1.88;1.10;;;41.90;46.50;;;;;;5116439;28;20054;-80
2022/07/19 12:30:33;;;;;;;3.35;1.10;;;41.90;47.10;;;;;;5109041;28;20047;-80
2022/07/19 12:33:07;;;;;;;2.35;1.40;;;41.90;46.70;;;;;;5113933;28;20445;-80
2022/07/19 12:35:47;;;;;;;2.83;1.20;;;41.90;46.20;;;;;;5115109;28;20105;-79
2022/07/19 12:38:15;;;;;;;4.05;1.45;;;42.00;46.50;;;;;;5096374;28;20487;-82
2022/07/19 12:40:43;;;;;;;4.32;1.55;;;42.00;46.40;;;;;;5114161;28;20108;-81
2022/07/19 12:43:12;;;;;;;7.18;1.42;;;42.00;46.60;;;;;;5114477;28;20449;-80
2022/07/19 12:45:42;;;;;;;4.25;1.40;;;42.10;47.10;;;;;;5096248;28;20070;-80
2022/07/19 12:48:10;;;;;;;2.42;1.30;;;41.90;46.90;;;;;;5094737;28;20083;-80
2022/07/19 12:50:40;;;;;;;5.03;1.85;;;42.10;47.20;;;;;;5112896;28;20047;-79